Time;durP1;ratioP1;P1;durP2;ratioP2;P2;SDS_P1;SDS_P2;PMS_P1;PMS_P2;Temp;Humidity;BMP_temperature;BMP_pressure;BME280_temperature;BME280_humidity;BME280_pressure;Samples;Min_cycle;Max_cycle;Signal;HPM_P1;HPM_P2
2023/10/02 00:01:57;;;;;;;13.20;7.90;;;15.00;99.90;;;;;;5038661;28;20502;-70
2023/10/02 00:04:24;;;;;;;12.70;8.10;;;15.00;99.90;;;;;;5033072;28;20452;-70
2023/10/02 00:07:05;;;;;;;11.20;8.57;;;15.00;99.90;;;;;;5029078;28;20436;-70
2023/10/02 00:09:35;;;;;;;11.97;8.17;;;14.90;99.90;;;;;;5042223;28;20448;-70
2023/10/02 00:12:11;;;;;;;11.40;8.67;;;14.90;99.90;;;;;;5033127;28;20440;-70
2023/10/02 00:14:38;;;;;;;17.97;8.43;;;14.90;99.90;;;;;;5033314;28;20474;-70
2023/10/02 00:17:04;;;;;;;11.53;9.00;;;14.90;99.90;;;;;;5031591;28;20465;-70
2023/10/02 00:19:35;;;;;;;15.33;7.80;;;14.90;99.90;;;;;;5033230;28;20425;-70
2023/10/02 00:22:05;;;;;;;10.70;7.70;;;14.90;99.90;;;;;;5034465;28;20424;-70
2023/10/02 00:24:32;;;;;;;17.90;9.90;;;14.90;99.90;;;;;;5032804;28;20461;-71
2023/10/02 00:26:58;;;;;;;11.83;8.57;;;14.90;99.90;;;;;;5033376;28;20536;-71
2023/10/02 00:29:26;;;;;;;12.60;9.50;;;14.80;99.90;;;;;;5034371;28;20453;-70
2023/10/02 00:31:52;;;;;;;14.70;9.73;;;14.80;99.90;;;;;;5034361;28;20452;-70
2023/10/02 00:34:30;;;;;;;11.33;7.57;;;14.80;99.90;;;;;;5034001;28;20475;-70
2023/10/02 00:37:01;;;;;;;12.03;7.70;;;14.80;99.90;;;;;;5032778;28;20456;-70
2023/10/02 00:39:31;;;;;;;14.23;9.20;;;14.80;99.90;;;;;;5032326;28;20444;-70
2023/10/02 00:44:54;;;;;;;11.73;8.33;;;14.70;99.90;;;;;;5034095;28;20483;-70
2023/10/02 00:50:27;;;;;;;14.37;10.30;;;14.70;99.90;;;;;;5032942;28;20448;-70
2023/10/02 00:52:54;;;;;;;12.53;8.20;;;14.70;99.90;;;;;;5030527;28;20456;-70
2023/10/02 00:55:24;;;;;;;19.00;9.90;;;14.70;99.90;;;;;;5033805;28;20483;-70
2023/10/02 00:57:52;;;;;;;15.10;8.70;;;14.60;99.90;;;;;;5032384;28;20431;-70
2023/10/02 01:00:21;;;;;;;10.97;7.80;;;14.60;99.90;;;;;;5033803;28;20471;-70
2023/10/02 01:02:51;;;;;;;13.67;9.20;;;14.60;99.90;;;;;;5032434;28;20479;-70
2023/10/02 01:05:30;;;;;;;12.63;7.90;;;14.60;99.90;;;;;;5032376;28;20583;-69
2023/10/02 01:07:57;;;;;;;12.90;9.47;;;14.60;99.90;;;;;;5033759;28;20425;-70
2023/10/02 01:10:29;;;;;;;15.63;11.40;;;14.60;99.90;;;;;;5033507;28;20436;-70
2023/10/02 01:13:01;;;;;;;12.43;9.50;;;14.50;99.90;;;;;;5027210;28;20451;-70
2023/10/02 01:15:28;;;;;;;17.50;10.30;;;14.50;99.90;;;;;;5030239;28;20824;-70
2023/10/02 01:20:40;;;;;;;13.17;9.83;;;14.50;99.90;;;;;;5029524;28;20455;-70
2023/10/02 01:23:18;;;;;;;12.33;9.33;;;14.50;99.90;;;;;;5029772;28;20433;-70
2023/10/02 01:25:45;;;;;;;15.00;9.87;;;14.40;99.90;;;;;;5032097;28;20471;-70
2023/10/02 01:28:13;;;;;;;12.20;9.30;;;14.40;99.90;;;;;;5048064;28;20436;-70
2023/10/02 01:30:44;;;;;;;17.83;10.03;;;14.40;99.90;;;;;;5024816;28;20457;-70
2023/10/02 01:33:14;;;;;;;12.30;9.90;;;14.40;99.90;;;;;;5031995;28;20547;-71
2023/10/02 01:35:48;;;;;;;13.87;9.27;;;14.40;99.90;;;;;;5024880;28;20514;-69
2023/10/02 01:38:18;;;;;;;16.00;9.47;;;14.40;99.90;;;;;;5033159;28;20444;-70
2023/10/02 01:40:48;;;;;;;15.03;9.43;;;14.40;99.90;;;;;;5033056;28;20423;-70
2023/10/02 01:43:15;;;;;;;13.57;8.43;;;14.40;99.90;;;;;;5033084;28;20508;-70
2023/10/02 01:45:45;;;;;;;14.23;9.57;;;14.40;99.90;;;;;;5032018;28;20448;-70
2023/10/02 01:48:36;;;;;;;14.00;10.60;;;14.40;99.90;;;;;;5030512;28;20942;-70
2023/10/02 01:51:25;;;;;;;13.50;9.70;;;14.30;99.90;;;;;;5031619;28;20437;-70
2023/10/02 01:54:02;;;;;;;17.73;9.93;;;14.20;99.90;;;;;;5022276;28;20461;-70
2023/10/02 01:56:30;;;;;;;16.93;11.00;;;14.20;99.90;;;;;;5030612;28;20460;-70
2023/10/02 01:59:09;;;;;;;12.73;9.00;;;14.20;99.90;;;;;;5031583;28;20433;-70
2023/10/02 02:01:51;;;;;;;13.10;9.20;;;14.20;99.90;;;;;;5031324;28;20425;-70
2023/10/02 02:04:18;;;;;;;13.33;9.77;;;14.20;99.90;;;;;;5032261;28;20535;-70
2023/10/02 02:06:54;;;;;;;13.33;9.53;;;14.10;99.90;;;;;;5030633;28;20925;-70
2023/10/02 02:09:24;;;;;;;11.17;8.80;;;14.10;99.90;;;;;;5024976;28;20511;-70
2023/10/02 02:12:10;;;;;;;14.97;8.67;;;14.10;99.90;;;;;;5031190;28;20844;-70
2023/10/02 02:14:51;;;;;;;13.47;9.07;;;14.10;99.90;;;;;;5031931;28;20461;-71
2023/10/02 02:17:27;;;;;;;15.13;10.90;;;14.10;99.90;;;;;;5032093;28;21036;-70
2023/10/02 02:20:06;;;;;;;14.33;9.50;;;14.00;99.90;;;;;;5032313;28;20920;-70
2023/10/02 02:22:33;;;;;;;15.40;9.50;;;14.00;99.90;;;;;;5031095;28;20440;-70
2023/10/02 02:24:59;;;;;;;15.63;9.93;;;14.10;99.90;;;;;;5030825;28;20532;-70
2023/10/02 02:27:25;;;;;;;12.57;9.20;;;14.00;99.90;;;;;;5039761;28;20435;-70
2023/10/02 02:29:54;;;;;;;13.50;9.20;;;14.00;99.90;;;;;;5034868;28;20818;-70
2023/10/02 02:32:36;;;;;;;13.70;9.97;;;14.00;99.90;;;;;;5025739;28;20819;-70
2023/10/02 02:35:06;;;;;;;14.10;9.73;;;14.00;99.90;;;;;;5032244;28;20458;-70
2023/10/02 02:37:32;;;;;;;17.37;12.10;;;14.00;99.90;;;;;;5051991;28;20439;-70
2023/10/02 02:42:50;;;;;;;14.77;9.73;;;14.00;99.90;;;;;;5029856;28;20451;-70
2023/10/02 02:45:28;;;;;;;12.53;9.93;;;14.00;99.90;;;;;;5031844;28;20543;-70
2023/10/02 02:48:10;;;;;;;13.27;9.20;;;14.00;99.90;;;;;;5032097;28;20936;-70
2023/10/02 02:50:42;;;;;;;16.47;11.50;;;14.00;99.90;;;;;;5032018;28;20778;-71
2023/10/02 02:53:16;;;;;;;14.87;11.10;;;14.00;99.90;;;;;;5030486;28;20445;-70
2023/10/02 02:55:43;;;;;;;15.23;10.73;;;14.10;99.90;;;;;;5023101;28;20961;-70
2023/10/02 02:58:09;;;;;;;14.67;9.13;;;14.10;99.90;;;;;;5022873;28;20495;-69
2023/10/02 03:00:35;;;;;;;14.10;10.90;;;14.20;99.90;;;;;;5032500;28;20420;-70
2023/10/02 03:03:02;;;;;;;14.87;10.00;;;14.20;99.90;;;;;;5032138;28;20598;-69
2023/10/02 03:05:43;;;;;;;13.67;9.40;;;14.30;99.90;;;;;;5035797;28;20421;-70
2023/10/02 03:08:11;;;;;;;16.00;10.17;;;14.30;99.90;;;;;;5034560;28;20436;-70
2023/10/02 03:10:39;;;;;;;14.17;9.63;;;14.30;99.90;;;;;;5034022;28;20428;-70
2023/10/02 03:13:08;;;;;;;13.47;9.77;;;14.30;99.90;;;;;;5034127;28;20444;-70
2023/10/02 03:15:45;;;;;;;14.17;9.00;;;14.20;99.90;;;;;;5035113;28;20979;-70
2023/10/02 03:18:23;;;;;;;16.53;9.40;;;14.20;99.90;;;;;;5035777;28;20479;-70
2023/10/02 03:20:56;;;;;;;16.43;10.37;;;14.20;99.90;;;;;;5035703;28;20420;-70
2023/10/02 03:23:22;;;;;;;11.60;9.83;;;14.10;99.90;;;;;;5035261;28;20535;-70
2023/10/02 03:25:51;;;;;;;14.37;9.87;;;14.10;99.90;;;;;;5034322;28;20440;-70
2023/10/02 03:28:27;;;;;;;12.23;8.63;;;14.00;99.90;;;;;;5035650;28;20507;-70
2023/10/02 03:30:56;;;;;;;15.13;9.40;;;14.00;99.90;;;;;;5035421;28;20881;-70
2023/10/02 03:33:22;;;;;;;16.53;9.60;;;13.90;99.90;;;;;;5035179;28;21021;-69
2023/10/02 03:36:04;;;;;;;16.50;10.80;;;13.90;99.90;;;;;;5035246;28;20475;-69
2023/10/02 03:38:33;;;;;;;17.83;10.30;;;13.90;99.90;;;;;;5034613;28;20793;-70
2023/10/02 03:41:03;;;;;;;15.20;10.37;;;13.90;99.90;;;;;;5035283;28;20448;-70
2023/10/02 03:43:34;;;;;;;12.40;10.60;;;13.90;99.90;;;;;;5034628;28;20432;-69
2023/10/02 03:46:06;;;;;;;12.30;8.87;;;13.90;99.90;;;;;;5035251;28;20840;-70
2023/10/02 03:48:36;;;;;;;14.07;10.03;;;13.80;99.90;;;;;;5030877;28;20821;-70
2023/10/02 03:51:06;;;;;;;13.53;10.27;;;13.80;99.90;;;;;;5029212;28;20428;-70
2023/10/02 03:53:34;;;;;;;13.23;9.40;;;13.80;99.90;;;;;;5034590;28;20436;-70
2023/10/02 03:58:49;;;;;;;13.70;9.43;;;13.80;99.90;;;;;;5028408;28;20482;-70
2023/10/02 04:01:17;;;;;;;14.90;10.07;;;13.80;99.90;;;;;;5026627;28;20433;-70
2023/10/02 04:04:46;;;;;;;15.23;10.23;;;13.70;99.90;;;;;;5034359;28;20448;-70
2023/10/02 04:06:42;;;;;;;16.20;10.97;;;13.70;99.90;;;;;;5021321;28;20428;-69
2023/10/02 04:11:36;;;;;;;15.60;10.23;;;13.60;99.90;;;;;;5031703;28;20449;-69
2023/10/02 04:14:02;;;;;;;13.03;10.07;;;13.50;99.90;;;;;;5024310;28;20476;-69
2023/10/02 04:16:28;;;;;;;13.73;9.43;;;13.50;99.90;;;;;;5029031;28;20476;-70
2023/10/02 04:19:01;;;;;;;14.03;10.43;;;13.50;99.90;;;;;;5032384;28;20257;-69
2023/10/02 04:21:28;;;;;;;15.63;9.83;;;13.50;99.90;;;;;;5034350;28;20417;-69
2023/10/02 04:23:54;;;;;;;12.47;10.13;;;13.50;99.90;;;;;;5029274;28;20482;-69
2023/10/02 04:26:23;;;;;;;19.03;11.47;;;13.40;99.90;;;;;;5029796;28;20445;-69
2023/10/02 04:29:14;;;;;;;17.03;11.10;;;13.40;99.90;;;;;;5028561;28;20818;-68
2023/10/02 04:31:44;;;;;;;15.83;11.13;;;13.40;99.90;;;;;;5031499;28;20464;-69
2023/10/02 04:34:36;;;;;;;16.60;9.60;;;13.40;99.90;;;;;;5034062;28;20472;-69
2023/10/02 04:36:57;;;;;;;14.40;10.70;;;13.40;99.90;;;;;;5028186;28;20475;-68
2023/10/02 04:42:18;;;;;;;16.00;10.40;;;13.30;99.90;;;;;;5048469;28;20427;-66
2023/10/02 04:44:56;;;;;;;17.40;11.70;;;13.20;99.90;;;;;;5053741;28;20445;-67
2023/10/02 04:47:23;;;;;;;13.03;10.97;;;13.20;99.90;;;;;;5044435;28;20451;-67
2023/10/02 04:55:22;;;;;;;16.10;11.57;;;13.20;99.90;;;;;;5033861;28;20518;-67
2023/10/02 04:57:50;;;;;;;15.60;11.10;;;13.20;99.90;;;;;;5031732;28;20441;-67
2023/10/02 05:00:32;;;;;;;16.63;10.77;;;13.20;99.90;;;;;;5033799;28;20428;-67
2023/10/02 05:05:49;;;;;;;15.40;10.90;;;13.10;99.90;;;;;;5013804;28;20937;-66
2023/10/02 05:08:19;;;;;;;17.13;12.10;;;13.10;99.90;;;;;;5014251;28;20985;-67
2023/10/02 05:11:05;;;;;;;15.43;12.40;;;13.00;99.90;;;;;;5015688;28;21288;-67
2023/10/02 05:16:19;;;;;;;16.17;10.40;;;12.90;99.90;;;;;;5033892;28;20444;-67
2023/10/02 05:18:47;;;;;;;14.07;10.37;;;12.90;99.90;;;;;;5033523;28;20435;-67
2023/10/02 05:21:16;;;;;;;14.67;10.30;;;12.90;99.90;;;;;;5032236;28;20511;-67
2023/10/02 05:23:43;;;;;;;17.10;11.00;;;13.00;99.90;;;;;;5024631;28;20441;-67
2023/10/02 05:26:29;;;;;;;18.80;12.80;;;13.10;99.90;;;;;;5033044;28;20889;-67
2023/10/02 05:28:55;;;;;;;19.83;12.23;;;13.10;99.90;;;;;;5033304;28;20429;-66
2023/10/02 05:31:21;;;;;;;15.70;10.10;;;13.10;99.90;;;;;;5033350;28;20507;-67
2023/10/02 05:33:48;;;;;;;15.30;11.20;;;13.10;99.90;;;;;;5031729;28;20203;-66
2023/10/02 05:36:19;;;;;;;16.30;11.20;;;13.10;99.90;;;;;;5033063;28;20553;-67
2023/10/02 05:39:05;;;;;;;20.37;12.70;;;13.20;99.90;;;;;;5033223;28;20825;-66
2023/10/02 05:41:41;;;;;;;19.90;13.30;;;13.20;99.90;;;;;;5033018;28;20428;-67
2023/10/02 05:44:13;;;;;;;15.00;10.93;;;13.20;99.90;;;;;;5032794;28;20653;-67
2023/10/02 05:46:55;;;;;;;17.93;10.50;;;13.20;99.90;;;;;;5032015;28;20464;-66
2023/10/02 05:49:23;;;;;;;16.70;11.40;;;13.20;99.90;;;;;;5032879;28;20429;-66
2023/10/02 05:51:49;;;;;;;17.40;12.57;;;13.20;99.90;;;;;;5033008;28;20421;-66
2023/10/02 05:54:19;;;;;;;18.70;12.53;;;13.30;99.90;;;;;;5032708;28;20448;-66
2023/10/02 05:56:44;;;;;;;20.13;12.17;;;13.30;99.90;;;;;;5031825;28;20848;-66
2023/10/02 05:59:11;;;;;;;17.27;12.63;;;13.40;99.90;;;;;;5032649;28;20431;-67
2023/10/02 06:01:37;;;;;;;16.70;10.80;;;13.50;99.90;;;;;;5032650;28;20585;-66
2023/10/02 06:04:04;;;;;;;16.43;11.67;;;13.60;99.90;;;;;;5032198;28;20440;-67
2023/10/02 06:06:36;;;;;;;18.03;12.13;;;13.60;99.90;;;;;;5032528;28;20194;-67
2023/10/02 06:09:03;;;;;;;17.87;11.20;;;13.70;99.90;;;;;;5030524;28;20435;-66
2023/10/02 06:11:33;;;;;;;16.50;10.60;;;13.70;99.90;;;;;;5030955;28;20416;-66
2023/10/02 06:14:10;;;;;;;16.33;11.87;;;13.80;99.90;;;;;;5030139;28;20475;-66
2023/10/02 06:16:41;;;;;;;17.63;11.20;;;13.90;99.90;;;;;;5027931;28;20432;-66
2023/10/02 06:19:14;;;;;;;16.43;10.37;;;14.20;99.90;;;;;;5029362;28;20435;-67
2023/10/02 06:22:00;;;;;;;13.50;9.63;;;14.50;99.90;;;;;;5024303;28;20427;-67
2023/10/02 06:24:29;;;;;;;16.73;10.60;;;14.80;99.90;;;;;;5032086;28;20455;-67
2023/10/02 06:26:58;;;;;;;14.00;10.30;;;15.10;99.90;;;;;;5030949;28;20963;-67
2023/10/02 06:29:37;;;;;;;16.47;10.43;;;15.30;99.90;;;;;;5032293;28;20829;-67
2023/10/02 06:32:11;;;;;;;17.57;12.93;;;15.50;99.90;;;;;;5032303;28;20490;-67
2023/10/02 06:34:38;;;;;;;15.70;11.77;;;15.80;99.90;;;;;;5031807;28;20452;-67
2023/10/02 06:37:11;;;;;;;15.07;11.40;;;16.00;99.90;;;;;;5031175;28;20417;-67
2023/10/02 06:40:02;;;;;;;14.80;10.97;;;16.30;99.90;;;;;;5031816;28;20949;-67
2023/10/02 06:42:28;;;;;;;17.60;14.13;;;16.60;99.90;;;;;;5030761;28;20425;-67
2023/10/02 06:44:54;;;;;;;20.37;13.93;;;16.80;99.90;;;;;;5032101;28;20440;-67
2023/10/02 06:47:28;;;;;;;15.17;11.53;;;17.10;99.90;;;;;;5031919;28;20480;-67
2023/10/02 06:50:02;;;;;;;16.00;11.90;;;17.30;99.90;;;;;;5030838;28;20166;-67
2023/10/02 06:52:29;;;;;;;13.80;11.10;;;17.60;99.90;;;;;;5031903;28;20439;-67
2023/10/02 06:54:56;;;;;;;15.83;11.67;;;17.70;99.90;;;;;;5031790;28;20812;-67
2023/10/02 06:57:24;;;;;;;13.80;11.50;;;17.50;99.90;;;;;;5031859;28;20428;-67
2023/10/02 06:59:53;;;;;;;16.50;11.30;;;17.50;99.90;;;;;;5031928;28;20926;-67
2023/10/02 07:02:19;;;;;;;15.17;11.57;;;17.50;99.90;;;;;;5025445;28;20483;-67
2023/10/02 07:04:47;;;;;;;19.53;12.27;;;17.50;99.90;;;;;;5029355;28;20456;-67
2023/10/02 07:07:20;;;;;;;15.57;11.77;;;17.90;99.90;;;;;;5031700;28;20514;-68
2023/10/02 07:09:48;;;;;;;20.97;10.70;;;18.30;99.90;;;;;;5030916;28;20954;-68
2023/10/02 07:12:13;;;;;;;15.43;10.53;;;18.90;99.90;;;;;;5031787;28;20417;-68
2023/10/02 07:14:41;;;;;;;17.10;11.90;;;19.10;99.90;;;;;;5031314;28;21037;-67
2023/10/02 07:17:16;;;;;;;17.33;11.40;;;19.40;99.90;;;;;;5030403;28;20605;-67
2023/10/02 07:19:50;;;;;;;17.90;12.03;;;19.70;99.90;;;;;;5030862;28;20975;-68
2023/10/02 07:22:23;;;;;;;21.33;14.47;;;19.80;99.90;;;;;;5030642;28;20967;-67
2023/10/02 07:24:52;;;;;;;16.70;11.50;;;20.10;99.90;;;;;;5030007;28;20803;-66
2023/10/02 07:27:28;;;;;;;18.83;12.90;;;20.40;99.90;;;;;;5031453;28;20452;-67
2023/10/02 07:29:58;;;;;;;15.90;12.10;;;20.90;99.90;;;;;;5031765;28;20441;-67
2023/10/02 07:32:29;;;;;;;13.20;10.50;;;21.30;99.90;;;;;;5030534;28;20904;-67
2023/10/02 07:34:55;;;;;;;16.30;10.53;;;21.50;99.90;;;;;;5031152;28;20982;-67
2023/10/02 07:37:24;;;;;;;18.70;11.37;;;21.90;99.90;;;;;;5031540;28;20952;-68
2023/10/02 07:39:56;;;;;;;20.50;11.23;;;22.20;99.90;;;;;;5031501;28;20429;-68
2023/10/02 07:42:28;;;;;;;13.50;10.47;;;22.40;99.90;;;;;;5030307;28;20477;-68
2023/10/02 07:50:33;;;;;;;13.93;10.53;;;22.80;99.90;;;;;;5035209;28;20599;-68
2023/10/02 07:53:06;;;;;;;14.50;10.77;;;22.90;99.90;;;;;;5034818;28;20785;-67
2023/10/02 07:55:34;;;;;;;16.83;12.70;;;22.70;99.90;;;;;;5034984;28;20833;-68
2023/10/02 07:58:01;;;;;;;16.27;11.73;;;23.00;99.90;;;;;;5034981;28;20960;-68
2023/10/02 08:00:37;;;;;;;21.20;13.60;;;22.90;99.90;;;;;;5035041;28;20902;-67
2023/10/02 08:03:04;;;;;;;17.70;10.70;;;23.60;99.90;;;;;;5035225;28;20420;-68
2023/10/02 08:05:36;;;;;;;16.90;11.20;;;24.50;99.90;;;;;;5033631;28;20471;-68
2023/10/02 08:08:10;;;;;;;15.00;10.27;;;25.00;99.90;;;;;;5034764;28;20420;-67
2023/10/02 08:10:49;;;;;;;17.30;11.30;;;25.40;99.90;;;;;;5035232;28;20821;-68
2023/10/02 08:13:16;;;;;;;14.70;11.00;;;25.90;99.90;;;;;;5034257;28;20431;-68
2023/10/02 08:15:44;;;;;;;15.80;11.90;;;26.20;98.20;;;;;;5034918;28;20424;-68
2023/10/02 08:18:17;;;;;;;16.33;12.30;;;26.00;98.50;;;;;;5033620;28;20463;-67
2023/10/02 08:20:45;;;;;;;16.00;12.03;;;26.80;97.10;;;;;;5027025;28;20466;-67
2023/10/02 08:23:21;;;;;;;16.30;12.13;;;27.70;93.80;;;;;;5034238;28;20440;-68
2023/10/02 08:26:05;;;;;;;16.80;12.00;;;28.10;91.30;;;;;;5033485;28;20507;-68
2023/10/02 08:28:33;;;;;;;14.10;11.63;;;28.50;89.30;;;;;;5034590;28;20417;-68
2023/10/02 08:31:02;;;;;;;15.17;10.90;;;28.50;82.40;;;;;;5033475;28;20483;-67
2023/10/02 08:33:31;;;;;;;18.17;13.10;;;28.80;76.90;;;;;;5033954;28;20554;-67
2023/10/02 08:36:09;;;;;;;16.87;12.80;;;28.30;74.70;;;;;;5034241;28;20439;-68
2023/10/02 08:38:35;;;;;;;15.83;11.57;;;28.90;71.00;;;;;;5034363;28;20425;-68
2023/10/02 08:41:04;;;;;;;15.40;11.27;;;28.50;68.10;;;;;;5033149;28;20437;-68
2023/10/02 08:43:32;;;;;;;18.70;11.83;;;29.20;66.80;;;;;;5033660;28;20445;-68
2023/10/02 08:45:58;;;;;;;14.90;11.47;;;28.90;63.60;;;;;;5030914;28;20759;-69
2023/10/02 08:48:25;;;;;;;16.50;13.03;;;29.40;62.80;;;;;;5034024;28;20429;-69
2023/10/02 08:50:57;;;;;;;14.50;11.37;;;30.50;58.40;;;;;;5033999;28;21027;-66
2023/10/02 08:53:23;;;;;;;13.23;11.23;;;30.80;56.40;;;;;;5032815;28;20449;-68
2023/10/02 08:56:01;;;;;;;18.40;12.03;;;30.50;55.10;;;;;;5033862;28;20420;-68
2023/10/02 08:58:29;;;;;;;16.40;12.40;;;30.90;53.60;;;;;;5031646;28;20842;-68
2023/10/02 09:04:36;;;;;;;14.70;12.43;;;32.90;50.90;;;;;;5033784;28;20957;-68
2023/10/02 09:06:41;;;;;;;15.67;12.50;;;34.00;48.30;;;;;;5021986;28;21029;-66
2023/10/02 09:09:21;;;;;;;18.30;13.33;;;34.20;46.10;;;;;;5031621;28;20475;-66
2023/10/02 09:11:53;;;;;;;15.47;12.27;;;34.50;45.20;;;;;;5026440;28;20482;-65
2023/10/02 09:16:48;;;;;;;13.80;12.33;;;35.30;41.40;;;;;;5033725;28;20421;-66
2023/10/02 09:19:30;;;;;;;12.60;11.30;;;35.50;40.50;;;;;;5032528;28;20429;-66
2023/10/02 09:22:06;;;;;;;15.40;13.53;;;35.70;39.70;;;;;;5033316;28;20463;-67
2023/10/02 09:24:35;;;;;;;13.03;11.73;;;34.80;39.30;;;;;;5033120;28;20527;-66
2023/10/02 09:27:27;;;;;;;16.80;15.00;;;34.00;39.80;;;;;;5033445;28;20413;-66
2023/10/02 09:30:21;;;;;;;15.23;13.73;;;33.50;39.70;;;;;;5032254;28;20420;-66
2023/10/02 09:32:49;;;;;;;15.77;12.30;;;32.30;41.00;;;;;;5025916;28;20423;-66
2023/10/02 09:35:22;;;;;;;16.37;13.57;;;32.30;41.50;;;;;;5033213;28;20977;-66
2023/10/02 09:38:04;;;;;;;15.33;13.03;;;31.70;41.40;;;;;;5033302;28;20455;-66
2023/10/02 09:43:31;;;;;;;15.50;12.37;;;31.60;41.70;;;;;;5030706;28;20968;-66
2023/10/02 09:46:05;;;;;;;16.10;13.53;;;33.10;40.00;;;;;;5033101;28;20770;-68
2023/10/02 09:48:46;;;;;;;17.13;12.90;;;33.80;36.90;;;;;;5033123;28;20424;-68
2023/10/02 09:51:37;;;;;;;17.37;13.40;;;34.40;37.00;;;;;;5031789;28;20815;-67
2023/10/02 09:54:17;;;;;;;14.80;13.30;;;35.90;37.00;;;;;;5027621;28;20449;-66
2023/10/02 09:57:11;;;;;;;17.60;12.83;;;37.00;34.80;;;;;;5031452;28;20527;-65
2023/10/02 09:59:45;;;;;;;15.23;13.50;;;35.20;34.20;;;;;;5032727;28;20421;-66
2023/10/02 10:02:49;;;;;;;15.50;12.70;;;34.70;34.40;;;;;;5033005;28;20412;-66
2023/10/02 10:05:39;;;;;;;18.37;14.17;;;34.40;34.80;;;;;;5030215;28;20462;-66
2023/10/02 10:08:18;;;;;;;17.63;13.67;;;36.00;35.80;;;;;;5025393;28;20419;-66
2023/10/02 10:10:50;;;;;;;19.10;13.37;;;38.10;34.60;;;;;;5030807;28;20436;-66
2023/10/02 10:13:46;;;;;;;15.80;13.73;;;39.20;32.50;;;;;;5031939;28;20503;-67
2023/10/02 10:16:29;;;;;;;18.27;12.83;;;39.30;31.30;;;;;;5028681;28;20457;-67
2023/10/02 10:22:04;;;;;;;14.37;12.50;;;40.50;29.40;;;;;;5013115;28;20505;-66
2023/10/02 10:24:51;;;;;;;14.87;13.37;;;40.50;28.90;;;;;;5019774;28;20444;-67
2023/10/02 10:27:39;;;;;;;16.50;12.43;;;41.70;27.80;;;;;;5032101;28;20428;-67
2023/10/02 10:30:27;;;;;;;15.47;13.87;;;41.70;26.70;;;;;;5022813;28;20456;-66
2023/10/02 10:35:35;;;;;;;17.47;15.63;;;42.00;25.30;;;;;;5031475;28;20412;-66
2023/10/02 10:38:26;;;;;;;15.43;13.83;;;41.60;24.60;;;;;;5032037;28;20925;-67
2023/10/02 10:41:00;;;;;;;20.37;16.97;;;41.70;24.40;;;;;;5012451;28;20792;-67
2023/10/02 10:43:43;;;;;;;17.63;14.40;;;42.10;24.20;;;;;;5012026;28;20539;-67
2023/10/02 10:46:47;;;;;;;21.63;19.33;;;42.40;24.10;;;;;;5012393;28;20500;-67
2023/10/02 10:49:23;;;;;;;17.13;15.10;;;44.00;23.10;;;;;;5019410;28;20493;-67
2023/10/02 10:51:52;;;;;;;17.87;16.07;;;44.50;22.90;;;;;;5025204;28;20408;-67
2023/10/02 10:54:27;;;;;;;18.60;16.30;;;44.80;22.50;;;;;;5031622;28;20433;-67
2023/10/02 11:00:26;;;;;;;18.27;16.37;;;42.70;23.10;;;;;;5021754;28;20440;-66
2023/10/02 11:03:01;;;;;;;17.57;15.77;;;42.90;23.30;;;;;;5025622;28;20425;-67
2023/10/02 11:05:27;;;;;;;18.53;16.53;;;41.60;23.40;;;;;;5032122;28;20416;-66
2023/10/02 11:07:55;;;;;;;19.80;17.70;;;42.40;23.30;;;;;;5032493;28;20468;-67
2023/10/02 11:10:27;;;;;;;19.07;17.17;;;42.80;22.90;;;;;;5030761;28;20424;-67
2023/10/02 11:12:57;;;;;;;17.87;14.90;;;43.10;23.30;;;;;;5031539;28;20425;-67
2023/10/02 11:15:59;;;;;;;18.67;16.70;;;44.30;23.10;;;;;;5019555;22;20483;-69
2023/10/02 11:18:21;;;;;;;19.30;17.30;;;44.70;22.20;;;;;;4990302;28;20437;-68
2023/10/02 11:20:50;;;;;;;19.43;17.50;;;44.90;22.00;;;;;;4992518;28;20792;-69
2023/10/02 11:23:37;;;;;;;18.23;16.40;;;45.10;22.10;;;;;;4993446;28;20429;-68
2023/10/02 11:26:11;;;;;;;21.17;18.90;;;45.90;21.60;;;;;;4981140;28;20514;-69
2023/10/02 11:28:37;;;;;;;22.17;19.83;;;46.10;20.90;;;;;;4976898;28;20473;-68
2023/10/02 11:31:45;;;;;;;20.30;18.30;;;45.80;21.30;;;;;;4976785;28;20411;-68
2023/10/02 11:34:11;;;;;;;23.67;19.97;;;45.80;21.30;;;;;;4975800;28;20454;-68
2023/10/02 11:36:50;;;;;;;20.50;18.50;;;46.20;22.20;;;;;;4987830;28;20460;-69
2023/10/02 11:39:27;;;;;;;21.90;18.67;;;46.50;22.30;;;;;;4996196;28;20246;-68
2023/10/02 11:41:52;;;;;;;24.33;20.23;;;44.10;20.80;;;;;;4996043;28;20410;-68
2023/10/02 11:44:18;;;;;;;20.00;18.00;;;44.40;21.60;;;;;;4995720;28;20501;-68
2023/10/02 11:46:43;;;;;;;20.90;18.80;;;44.70;21.10;;;;;;4985288;28;20728;-68
2023/10/02 11:49:12;;;;;;;22.80;20.40;;;44.60;21.10;;;;;;4992087;28;20194;-69
2023/10/02 11:51:38;;;;;;;21.60;18.43;;;45.20;21.10;;;;;;4995825;28;20172;-69
2023/10/02 11:54:13;;;;;;;22.30;20.20;;;44.90;21.00;;;;;;4995485;28;20458;-68
2023/10/02 11:56:38;;;;;;;19.10;17.10;;;44.70;21.20;;;;;;4993188;28;20210;-67
2023/10/02 11:59:06;;;;;;;20.20;18.10;;;45.00;21.30;;;;;;4984218;28;20435;-68
2023/10/02 12:01:31;;;;;;;21.40;19.10;;;45.50;20.70;;;;;;4985009;28;20688;-68
2023/10/02 12:03:57;;;;;;;22.37;20.00;;;45.90;20.40;;;;;;4989692;28;20540;-68
2023/10/02 12:06:24;;;;;;;22.00;19.60;;;46.60;20.10;;;;;;4995527;28;20176;-68
2023/10/02 12:08:51;;;;;;;21.97;19.73;;;47.20;20.80;;;;;;4990241;28;20187;-68
2023/10/02 12:11:17;;;;;;;21.43;18.83;;;47.30;24.60;;;;;;4984339;28;20474;-68
2023/10/02 12:13:44;;;;;;;22.33;20.00;;;47.90;25.40;;;;;;4994952;28;20509;-69
2023/10/02 12:16:11;;;;;;;20.17;18.10;;;48.50;25.80;;;;;;4995313;28;20245;-68
2023/10/02 12:18:43;;;;;;;22.00;19.70;;;48.60;26.40;;;;;;4995359;28;20920;-68
2023/10/02 12:21:10;;;;;;;23.70;21.00;;;48.30;26.10;;;;;;4986499;28;20441;-68
2023/10/02 12:23:40;;;;;;;24.87;22.40;;;48.60;26.20;;;;;;4983411;28;20447;-68
2023/10/02 12:26:09;;;;;;;23.50;21.20;;;48.40;25.60;;;;;;4975664;28;20430;-68
2023/10/02 12:28:36;;;;;;;22.70;20.37;;;47.10;25.30;;;;;;4975598;28;20791;-68
2023/10/02 12:31:15;;;;;;;24.20;21.80;;;45.20;26.10;;;;;;4975899;28;20847;-68
2023/10/02 12:33:45;;;;;;;23.00;20.63;;;46.50;25.50;;;;;;4978851;28;20548;-68
2023/10/02 12:36:17;;;;;;;24.80;21.27;;;47.50;25.30;;;;;;4983438;28;20614;-68
2023/10/02 12:38:43;;;;;;;22.50;20.10;;;48.10;24.80;;;;;;4956298;28;20431;-68
2023/10/02 12:41:21;;;;;;;25.00;22.37;;;49.10;24.70;;;;;;4956044;28;20509;-67
2023/10/02 12:44:08;;;;;;;25.97;23.23;;;49.70;23.80;;;;;;4956289;28;20455;-68
2023/10/02 12:46:43;;;;;;;24.33;21.93;;;49.80;23.30;;;;;;4985970;28;20485;-69
2023/10/02 12:49:08;;;;;;;23.67;21.27;;;49.10;23.10;;;;;;4994911;28;20659;-69
2023/10/02 12:51:34;;;;;;;25.00;22.40;;;48.90;23.30;;;;;;4994629;28;20442;-68
2023/10/02 12:53:59;;;;;;;25.00;22.57;;;49.10;23.30;;;;;;4983766;28;20261;-68
2023/10/02 12:56:25;;;;;;;25.07;22.70;;;49.40;23.30;;;;;;4983941;28;20203;-68
2023/10/02 12:58:54;;;;;;;24.80;22.30;;;49.40;23.30;;;;;;4994672;28;20176;-68
2023/10/02 13:01:24;;;;;;;22.77;20.57;;;49.90;23.30;;;;;;4994566;28;20167;-68
2023/10/02 13:03:51;;;;;;;24.20;21.80;;;50.10;23.30;;;;;;4984631;28;20893;-68
2023/10/02 13:06:17;;;;;;;24.23;21.77;;;50.20;23.30;;;;;;4984284;28;20477;-68
2023/10/02 13:08:44;;;;;;;24.37;21.83;;;50.00;23.20;;;;;;4994380;28;20499;-68
2023/10/02 13:11:18;;;;;;;25.03;22.73;;;50.60;22.40;;;;;;4994636;28;20168;-68
2023/10/02 13:13:46;;;;;;;23.63;21.20;;;50.50;20.30;;;;;;4993989;28;20480;-68
2023/10/02 13:16:18;;;;;;;21.73;19.70;;;50.60;17.40;;;;;;4985108;28;20453;-68
2023/10/02 13:18:44;;;;;;;20.83;18.93;;;50.40;17.10;;;;;;4979707;28;20998;-68
2023/10/02 13:21:14;;;;;;;22.20;20.10;;;50.50;17.10;;;;;;4994170;28;20510;-68
2023/10/02 13:23:41;;;;;;;23.57;21.17;;;49.90;17.10;;;;;;4993850;28;20943;-68
2023/10/02 13:26:10;;;;;;;22.83;20.73;;;49.40;17.10;;;;;;4984564;28;20455;-67
2023/10/02 13:28:37;;;;;;;23.77;21.47;;;48.50;17.50;;;;;;4993649;28;20419;-68
2023/10/02 13:31:12;;;;;;;23.10;20.70;;;47.80;17.50;;;;;;4993937;28;20433;-68
2023/10/02 13:33:46;;;;;;;21.60;19.53;;;47.40;18.00;;;;;;4993635;28;20442;-67
2023/10/02 13:36:17;;;;;;;23.17;20.80;;;47.30;17.90;;;;;;4992250;28;20484;-68
2023/10/02 13:38:44;;;;;;;22.83;20.47;;;46.50;17.90;;;;;;4982376;28;20489;-68
2023/10/02 13:41:11;;;;;;;24.00;21.60;;;44.60;18.70;;;;;;4974412;28;20420;-67
2023/10/02 13:43:41;;;;;;;25.17;22.67;;;43.60;19.30;;;;;;4973917;28;20502;-67
2023/10/02 13:46:08;;;;;;;24.10;21.57;;;42.80;19.80;;;;;;4973344;28;20463;-67
2023/10/02 13:48:34;;;;;;;21.53;19.27;;;41.40;20.50;;;;;;4976371;28;20570;-68